Time;durP1;ratioP1;P1;durP2;ratioP2;P2;SDS_P1;SDS_P2;PMS_P1;PMS_P2;Temp;Humidity;BMP_temperature;BMP_pressure;BME280_temperature;BME280_humidity;BME280_pressure;Samples;Min_cycle;Max_cycle;Signal;HPM_P1;HPM_P2
2023/07/29 00:02:10;;;;;;;;;;;;;;;22.36;50.94;95401.03;10447885;28;1910;-68
2023/07/29 00:07:10;;;;;;;;;;;;;;;22.36;50.91;95395.75;10470239;28;2238;-68
2023/07/29 00:12:10;;;;;;;;;;;;;;;22.36;50.88;95391.22;10441309;28;1986;-67
2023/07/29 00:17:10;;;;;;;;;;;;;;;22.36;51.12;95393.09;10476669;28;1927;-69
2023/07/29 00:22:11;;;;;;;;;;;;;;;22.36;50.87;95395.75;10445253;28;1924;-68
2023/07/29 00:27:11;;;;;;;;;;;;;;;22.34;51.18;95389.97;10442629;28;2144;-68
2023/07/29 00:32:11;;;;;;;;;;;;;;;22.33;50.83;95386.53;10442622;28;2055;-68
2023/07/29 00:37:12;;;;;;;;;;;;;;;22.34;50.52;95377.53;10441361;28;4565;-69
2023/07/29 00:42:12;;;;;;;;;;;;;;;22.34;50.69;95379.41;10442737;28;1960;-71
2023/07/29 00:47:12;;;;;;;;;;;;;;;22.34;50.58;95382.81;10470981;28;1998;-72
2023/07/29 00:52:13;;;;;;;;;;;;;;;22.33;50.58;95378.63;10461956;28;2191;-70
2023/07/29 00:57:13;;;;;;;;;;;;;;;22.33;50.54;95389.16;10445487;28;1923;-69
2023/07/29 01:02:14;;;;;;;;;;;;;;;22.34;50.47;95376.75;10441554;28;1978;-68
2023/07/29 01:07:17;;;;;;;;;;;;;;;22.32;50.40;95384.94;10443303;28;1920;-68
2023/07/29 01:12:22;;;;;;;;;;;;;;;22.32;50.47;95371.75;10443995;28;1962;-68
2023/07/29 01:17:23;;;;;;;;;;;;;;;22.32;50.08;95369.13;10436865;28;1995;-68
2023/07/29 01:22:23;;;;;;;;;;;;;;;22.33;50.24;95362.78;10441643;28;1947;-68
2023/07/29 01:27:23;;;;;;;;;;;;;;;22.32;50.44;95358.53;10441581;28;2081;-69
2023/07/29 01:32:39;;;;;;;;;;;;;;;22.32;50.13;95368.31;10441737;28;2113;-69
2023/07/29 01:37:39;;;;;;;;;;;;;;;22.32;50.15;95368.31;10442657;28;4446;-68
2023/07/29 01:42:39;;;;;;;;;;;;;;;22.31;50.09;95351.72;10441371;28;1918;-68
2023/07/29 01:47:41;;;;;;;;;;;;;;;22.31;50.45;95357.00;10438138;28;1962;-69
2023/07/29 01:52:41;;;;;;;;;;;;;;;22.31;50.18;95350.94;10439150;28;1970;-68
2023/07/29 01:57:44;;;;;;;;;;;;;;;22.32;50.03;95352.47;10441653;28;2296;-68
2023/07/29 02:02:44;;;;;;;;;;;;;;;22.31;50.19;95356.22;10441278;28;1952;-68
2023/07/29 02:07:45;;;;;;;;;;;;;;;22.32;50.22;95345.34;10454983;28;1944;-68
2023/07/29 02:12:45;;;;;;;;;;;;;;;22.32;50.36;95342.69;10440623;28;1900;-68
2023/07/29 02:17:45;;;;;;;;;;;;;;;22.32;50.26;95341.91;10471297;28;1900;-70
2023/07/29 02:22:46;;;;;;;;;;;;;;;22.31;50.04;95341.16;10439660;28;1973;-68
2023/07/29 02:27:46;;;;;;;;;;;;;;;22.30;50.37;95336.94;10438900;28;2043;-68
2023/07/29 02:32:46;;;;;;;;;;;;;;;22.30;50.12;95336.94;10468456;28;1948;-69
2023/07/29 02:37:46;;;;;;;;;;;;;;;22.29;50.31;95345.16;10439412;28;4521;-69
2023/07/29 02:42:47;;;;;;;;;;;;;;;22.29;49.97;95347.81;10454295;28;1955;-68
2023/07/29 02:47:47;;;;;;;;;;;;;;;22.30;50.09;95362.56;10441140;28;2126;-68
2023/07/29 02:52:47;;;;;;;;;;;;;;;22.29;50.36;95347.81;10440014;28;2297;-68
2023/07/29 02:57:47;;;;;;;;;;;;;;;22.30;49.84;95344.06;10438977;28;1927;-68
2023/07/29 03:02:48;;;;;;;;;;;;;;;22.30;50.20;95347.50;10443633;28;1963;-69
2023/07/29 03:07:48;;;;;;;;;;;;;;;22.29;50.05;95339.88;10444095;28;1841;-69
2023/07/29 03:12:48;;;;;;;;;;;;;;;22.28;50.10;95341.72;10447734;28;1927;-68
2023/07/29 03:17:49;;;;;;;;;;;;;;;22.28;50.01;95333.81;10449467;28;1932;-68
2023/07/29 03:22:49;;;;;;;;;;;;;;;22.28;49.99;95336.44;10451591;28;1971;-68
2023/07/29 03:27:49;;;;;;;;;;;;;;;22.26;50.34;95346.53;10466561;28;2195;-68
2023/07/29 03:32:50;;;;;;;;;;;;;;;22.28;50.25;95335.66;10447388;28;1963;-68
2023/07/29 03:37:50;;;;;;;;;;;;;;;22.27;50.07;95318.28;10474366;28;4896;-68
2023/07/29 03:42:50;;;;;;;;;;;;;;;22.27;50.32;95332.25;10448141;28;1990;-68
2023/07/29 03:47:50;;;;;;;;;;;;;;;22.27;50.21;95344.66;10447365;28;2028;-68
2023/07/29 03:52:51;;;;;;;;;;;;;;;22.26;50.13;95343.09;10442967;28;2358;-68
2023/07/29 03:57:51;;;;;;;;;;;;;;;22.26;49.91;95351.00;10445448;28;2025;-68
2023/07/29 04:02:51;;;;;;;;;;;;;;;22.26;49.70;95343.09;10451249;28;1909;-68
2023/07/29 04:07:53;;;;;;;;;;;;;;;22.26;49.68;95337.81;10440904;28;1981;-68
2023/07/29 04:12:53;;;;;;;;;;;;;;;22.25;49.86;95323.06;10441413;28;1936;-67
2023/07/29 04:17:54;;;;;;;;;;;;;;;22.25;49.74;95312.50;10448841;28;1931;-67
2023/07/29 04:22:54;;;;;;;;;;;;;;;22.26;49.65;95303.50;10446155;28;1959;-68
2023/07/29 04:27:55;;;;;;;;;;;;;;;22.25;49.95;95305.38;10444705;28;1991;-68
2023/07/29 04:32:55;;;;;;;;;;;;;;;22.25;49.79;95305.38;10444894;28;1944;-68
2023/07/29 04:37:55;;;;;;;;;;;;;;;22.26;50.01;95306.13;10445576;28;4297;-67
2023/07/29 04:42:55;;;;;;;;;;;;;;;22.24;49.74;95298.50;10446369;28;2411;-68
2023/07/29 04:47:56;;;;;;;;;;;;;;;22.25;49.50;95300.09;10446723;28;1964;-68
2023/07/29 04:52:56;;;;;;;;;;;;;;;22.23;49.58;95302.25;10443591;28;2239;-68
2023/07/29 04:57:56;;;;;;;;;;;;;;;22.24;49.68;95298.50;10452034;28;1951;-68
2023/07/29 05:02:57;;;;;;;;;;;;;;;22.24;49.70;95301.16;10445780;28;1920;-67
2023/07/29 05:07:57;;;;;;;;;;;;;;;22.25;50.06;95286.09;10441549;28;1963;-67
2023/07/29 05:12:57;;;;;;;;;;;;;;;22.25;50.16;95289.53;10441884;28;1967;-68
2023/07/29 05:17:57;;;;;;;;;;;;;;;22.26;49.99;95287.66;10442351;28;2141;-67
2023/07/29 05:22:58;;;;;;;;;;;;;;;22.27;50.04;95276.03;10440223;28;1972;-67
2023/07/29 05:27:58;;;;;;;;;;;;;;;22.26;50.22;95275.22;10458598;28;2032;-67
2023/07/29 05:32:58;;;;;;;;;;;;;;;22.27;50.14;95282.09;10441400;28;2022;-68
2023/07/29 05:37:59;;;;;;;;;;;;;;;22.27;50.04;95287.38;10436919;28;4454;-69
2023/07/29 05:42:59;;;;;;;;;;;;;;;22.28;50.32;95296.84;10444025;28;2324;-68
2023/07/29 05:47:59;;;;;;;;;;;;;;;22.28;50.07;95288.13;10448961;28;1955;-69
2023/07/29 05:52:59;;;;;;;;;;;;;;;22.28;50.34;95291.56;10441241;28;1958;-69
2023/07/29 05:58:00;;;;;;;;;;;;;;;22.28;50.41;95302.13;10439678;28;1971;-68
2023/07/29 06:03:00;;;;;;;;;;;;;;;22.29;50.35;95330.09;10443960;28;1955;-68
2023/07/29 06:08:00;;;;;;;;;;;;;;;22.29;50.34;95335.38;10443938;28;2067;-69
2023/07/29 06:13:01;;;;;;;;;;;;;;;22.27;49.91;95279.44;10434835;28;2008;-68
2023/07/29 06:18:01;;;;;;;;;;;;;;;22.28;50.05;95285.50;10442386;28;1943;-68
2023/07/29 06:23:02;;;;;;;;;;;;;;;22.28;49.99;95288.13;10441091;28;1960;-67
2023/07/29 06:28:02;;;;;;;;;;;;;;;22.27;50.05;95292.66;10445064;28;1967;-69
2023/07/29 06:33:03;;;;;;;;;;;;;;;22.28;50.20;95294.19;10442722;28;1939;-68
2023/07/29 06:38:03;;;;;;;;;;;;;;;22.27;50.03;95319.06;10445281;28;4518;-68
2023/07/29 06:43:03;;;;;;;;;;;;;;;22.28;50.13;95319.81;10432908;28;1960;-68
2023/07/29 06:48:04;;;;;;;;;;;;;;;22.28;50.34;95338.31;10442727;28;1969;-67
2023/07/29 06:53:04;;;;;;;;;;;;;;;22.28;50.37;95383.19;10442592;28;2022;-68
2023/07/29 06:58:04;;;;;;;;;;;;;;;22.29;50.28;95403.25;10435151;28;2064;-68
2023/07/29 07:03:04;;;;;;;;;;;;;;;22.27;50.40;95408.81;10437153;28;2089;-68
2023/07/29 07:08:05;;;;;;;;;;;;;;;22.26;50.13;95383.47;10440149;28;1912;-67
2023/07/29 07:13:05;;;;;;;;;;;;;;;22.28;50.27;95376.06;10465281;28;1978;-67
2023/07/29 07:18:05;;;;;;;;;;;;;;;22.27;50.11;95371.88;10434050;28;2119;-68
2023/07/29 07:23:08;;;;;;;;;;;;;;;22.27;50.26;95377.16;10444569;28;2066;-69
2023/07/29 07:28:09;;;;;;;;;;;;;;;22.27;50.07;95369.22;10445204;28;1908;-68
2023/07/29 07:33:09;;;;;;;;;;;;;;;22.26;50.08;95362.38;10469544;28;1956;-67
2023/07/29 07:38:09;;;;;;;;;;;;;;;22.28;50.14;95322.47;10435075;28;4501;-68
2023/07/29 07:43:10;;;;;;;;;;;;;;;22.28;50.33;95333.03;10445545;28;1987;-68
2023/07/29 07:48:12;;;;;;;;;;;;;;;22.29;50.34;95313.47;10446681;28;1962;-68
2023/07/29 07:53:13;;;;;;;;;;;;;;;22.29;50.29;95300.28;10456567;28;1971;-68
2023/07/29 07:58:13;;;;;;;;;;;;;;;22.28;50.22;95303.97;10454240;28;1981;-67
2023/07/29 08:03:13;;;;;;;;;;;;;;;22.29;50.40;95314.25;10454598;28;1967;-67
2023/07/29 08:08:14;;;;;;;;;;;;;;;22.29;50.58;95319.53;10449406;28;1920;-68
2023/07/29 08:13:14;;;;;;;;;;;;;;;22.30;50.45;95315.81;10444443;28;1958;-68
2023/07/29 08:18:14;;;;;;;;;;;;;;;22.30;50.75;95313.16;10447293;28;1935;-69
2023/07/29 08:23:14;;;;;;;;;;;;;;;22.31;50.32;95316.59;10445436;28;1915;-67
2023/07/29 08:28:15;;;;;;;;;;;;;;;22.30;50.64;95315.81;10449668;28;1837;-67
2023/07/29 08:33:15;;;;;;;;;;;;;;;22.32;50.85;95318.16;10442471;28;2127;-67
2023/07/29 08:38:15;;;;;;;;;;;;;;;22.31;50.95;95308.69;10445870;28;4493;-69
2023/07/29 08:43:16;;;;;;;;;;;;;;;22.32;50.68;95323.44;10452612;28;1977;-68
2023/07/29 08:48:17;;;;;;;;;;;;;;;22.31;50.92;95322.66;10468859;28;1921;-69
2023/07/29 08:53:18;;;;;;;;;;;;;;;22.32;51.25;95324.22;10457741;28;1976;-70
2023/07/29 08:58:18;;;;;;;;;;;;;;;22.33;51.02;95332.94;10444007;28;1955;-70
2023/07/29 09:03:19;;;;;;;;;;;;;;;22.33;50.92;95325.81;10447359;28;1985;-69
2023/07/29 09:08:21;;;;;;;;;;;;;;;22.31;51.16;95322.66;10444747;28;1986;-67
2023/07/29 09:13:21;;;;;;;;;;;;;;;22.33;51.12;95322.38;10452033;28;2226;-67
2023/07/29 09:18:22;;;;;;;;;;;;;;;22.33;51.22;95320.53;10444459;28;1912;-68
2023/07/29 09:23:22;;;;;;;;;;;;;;;22.33;51.61;95317.88;10478927;28;2253;-65
2023/07/29 09:28:23;;;;;;;;;;;;;;;22.34;51.46;95319.44;10446614;28;2296;-68
2023/07/29 09:33:25;;;;;;;;;;;;;;;22.34;51.89;95319.44;10446963;28;1900;-67
2023/07/29 09:38:26;;;;;;;;;;;;;;;22.36;51.80;95317.28;10430010;28;4553;-67
2023/07/29 09:43:31;;;;;;;;;;;;;;;22.36;51.84;95317.28;10445001;28;2019;-68
2023/07/29 09:48:34;;;;;;;;;;;;;;;22.38;52.12;95319.63;10439320;28;1959;-68
2023/07/29 09:53:38;;;;;;;;;;;;;;;22.37;51.84;95307.50;10442150;28;1961;-69
2023/07/29 09:58:39;;;;;;;;;;;;;;;22.39;52.02;95314.06;10449403;28;1501;-69
2023/07/29 10:03:39;;;;;;;;;;;;;;;22.41;52.42;95300.53;10451380;28;1983;-68
2023/07/29 10:08:39;;;;;;;;;;;;;;;22.42;52.25;95288.94;10442202;28;1553;-68
2023/07/29 10:13:40;;;;;;;;;;;;;;;22.43;52.74;95290.47;10472376;28;1467;-69
2023/07/29 10:18:40;;;;;;;;;;;;;;;22.43;52.51;95290.47;10448064;28;2003;-68
2023/07/29 10:23:42;;;;;;;;;;;;;;;22.45;52.51;95285.69;10443380;28;2305;-69
2023/07/29 10:28:44;;;;;;;;;;;;;;;22.45;52.42;95272.47;10445632;28;1461;-69
2023/07/29 10:33:44;;;;;;;;;;;;;;;22.45;52.51;95267.97;10450189;28;1486;-70
2023/07/29 10:38:44;;;;;;;;;;;;;;;22.46;52.63;95264.25;10452421;28;4489;-70
2023/07/29 10:43:45;;;;;;;;;;;;;;;22.47;52.72;95265.81;10458547;28;1906;-70
2023/07/29 10:48:51;;;;;;;;;;;;;;;22.48;52.48;95267.38;10447402;28;1656;-70
2023/07/29 10:54:01;;;;;;;;;;;;;;;22.47;52.46;95255.25;10449044;28;1436;-69
2023/07/29 10:59:21;;;;;;;;;;;;;;;22.50;52.35;95256.53;10456411;28;1491;-70
2023/07/29 11:04:32;;;;;;;;;;;;;;;22.50;52.65;95261.81;10456600;28;1980;-68
2023/07/29 11:09:48;;;;;;;;;;;;;;;22.49;52.47;95268.94;10452280;28;1478;-70
2023/07/29 11:14:48;;;;;;;;;;;;;;;22.50;52.40;95286.34;10457277;28;1448;-69
2023/07/29 11:19:49;;;;;;;;;;;;;;;22.50;52.49;95277.66;10463482;28;2408;-69
2023/07/29 11:24:49;;;;;;;;;;;;;;;22.51;52.31;95300.34;10471718;28;1975;-69
2023/07/29 11:29:49;;;;;;;;;;;;;;;22.51;52.40;95287.91;10457433;28;1818;-68
2023/07/29 11:34:50;;;;;;;;;;;;;;;22.51;52.37;95297.69;10463979;28;1463;-68
2023/07/29 11:39:51;;;;;;;;;;;;;;;22.51;52.63;95277.34;10460879;28;1464;-67
2023/07/29 11:44:51;;;;;;;;;;;;;;;22.53;52.23;95272.56;10460114;28;1972;-69
2023/07/29 11:49:51;;;;;;;;;;;;;;;22.53;52.23;95274.41;10460741;28;1432;-67
2023/07/29 11:54:51;;;;;;;;;;;;;;;22.54;52.58;95275.97;10467600;28;1403;-68
2023/07/29 11:59:52;;;;;;;;;;;;;;;22.56;52.30;95268.53;10458178;28;1488;-69
2023/07/29 12:04:53;;;;;;;;;;;;;;;22.57;52.54;95256.88;10460477;28;1975;-68
2023/07/29 12:09:53;;;;;;;;;;;;;;;22.57;52.37;95257.69;10488881;28;1480;-68
2023/07/29 12:14:54;;;;;;;;;;;;;;;22.58;52.44;95256.63;10490295;28;2637;-69
2023/07/29 12:19:54;;;;;;;;;;;;;;;22.59;52.37;95252.91;10470004;28;1543;-69
2023/07/29 12:24:54;;;;;;;;;;;;;;;22.59;52.59;95233.63;10465382;28;1910;-69
2023/07/29 12:29:55;;;;;;;;;;;;;;;22.61;52.69;95236.75;10494087;28;1999;-70
2023/07/29 12:34:55;;;;;;;;;;;;;;;22.62;52.76;95247.03;10447993;28;1969;-69
2023/07/29 12:39:55;;;;;;;;;;;;;;;22.61;52.76;95234.91;10476318;28;4462;-68
2023/07/29 12:44:55;;;;;;;;;;;;;;;22.60;52.42;95216.72;10451800;28;1949;-66
2023/07/29 12:49:56;;;;;;;;;;;;;;;22.61;52.40;95223.53;10452727;28;2037;-66
2023/07/29 12:54:56;;;;;;;;;;;;;;;22.61;52.27;95287.72;10443997;28;1913;-66
2023/07/29 12:59:56;;;;;;;;;;;;;;;22.61;52.16;95256.03;10450472;28;1971;-66
2023/07/29 13:04:57;;;;;;;;;;;;;;;22.60;52.10;95253.69;10450872;28;2174;-66
2023/07/29 13:09:57;;;;;;;;;;;;;;;22.59;52.08;95279.31;10453892;28;1878;-67
2023/07/29 13:14:57;;;;;;;;;;;;;;;22.58;52.43;95293.63;10451673;28;2198;-67
2023/07/29 13:19:57;;;;;;;;;;;;;;;22.58;52.00;95285.69;10445106;28;1962;-65
2023/07/29 13:24:58;;;;;;;;;;;;;;;22.58;51.99;95288.34;10447415;28;1968;-70
2023/07/29 13:29:58;;;;;;;;;;;;;;;22.58;51.98;95275.13;10445752;28;1954;-65
2023/07/29 13:34:58;;;;;;;;;;;;;;;22.57;51.98;95294.66;10442942;28;2116;-65
2023/07/29 13:39:59;;;;;;;;;;;;;;;22.56;52.17;95301.03;10453299;28;1869;-64
2023/07/29 13:44:59;;;;;;;;;;;;;;;22.56;52.14;95293.09;10444150;28;2097;-71
2023/07/29 13:49:59;;;;;;;;;;;;;;;22.53;51.98;95269.91;10452206;28;2111;-66
2023/07/29 13:55:00;;;;;;;;;;;;;;;22.54;51.79;95279.41;10443206;28;2007;-68
2023/07/29 14:00:00;;;;;;;;;;;;;;;22.54;51.80;95287.34;10453462;28;1866;-66
2023/07/29 14:05:00;;;;;;;;;;;;;;;22.55;51.71;95285.47;10448026;28;1905;-67
2023/07/29 14:10:01;;;;;;;;;;;;;;;22.53;51.73;95269.91;10436333;28;2282;-64
2023/07/29 14:15:01;;;;;;;;;;;;;;;22.54;51.69;95270.69;10441145;28;1965;-65
2023/07/29 14:20:01;;;;;;;;;;;;;;;22.53;51.74;95261.19;10451742;28;1814;-67
2023/07/29 14:25:01;;;;;;;;;;;;;;;22.54;51.87;95265.41;10445423;28;1973;-68
2023/07/29 14:30:02;;;;;;;;;;;;;;;22.52;51.57;95272.84;10445644;28;1883;-67
2023/07/29 14:35:03;;;;;;;;;;;;;;;22.53;51.63;95279.69;10441175;28;1895;-70
2023/07/29 14:40:04;;;;;;;;;;;;;;;22.53;52.16;95298.19;10441633;28;4458;-69
2023/07/29 14:45:04;;;;;;;;;;;;;;;22.59;53.33;95316.31;10445744;28;1909;-71
2023/07/29 14:50:05;;;;;;;;;;;;;;;22.60;53.25;95307.31;10468602;28;2020;-70
2023/07/29 14:55:05;;;;;;;;;;;;;;;22.61;53.18;95293.00;10478908;28;1894;-70
2023/07/29 15:00:07;;;;;;;;;;;;;;;22.63;53.32;95300.63;10454995;28;1866;-75
2023/07/29 15:05:07;;;;;;;;;;;;;;;22.63;52.83;95275.00;10442933;28;2283;-76
2023/07/29 15:10:07;;;;;;;;;;;;;;;22.65;53.50;95272.84;10441746;28;1922;-75
2023/07/29 15:15:08;;;;;;;;;;;;;;;22.67;53.39;95269.13;10445737;28;1502;-79
2023/07/29 15:20:09;;;;;;;;;;;;;;;22.69;53.77;95282.84;10482091;28;1853;-71
2023/07/29 15:25:09;;;;;;;;;;;;;;;22.71;54.13;95284.06;10459277;28;1961;-73
2023/07/29 15:30:11;;;;;;;;;;;;;;;22.72;54.55;95276.94;10458622;28;1598;-72
2023/07/29 15:35:12;;;;;;;;;;;;;;;22.73;54.37;95316.25;10454924;28;1686;-75
2023/07/29 15:40:12;;;;;;;;;;;;;;;22.74;54.32;95312.56;10453762;28;4395;-75
2023/07/29 15:45:12;;;;;;;;;;;;;;;22.74;54.50;95307.28;10458241;28;1972;-74
2023/07/29 15:50:12;;;;;;;;;;;;;;;22.75;54.79;95329.19;10451764;28;1469;-75
2023/07/29 15:55:13;;;;;;;;;;;;;;;22.75;54.80;95324.69;10458718;28;1584;-76
2023/07/29 16:00:13;;;;;;;;;;;;;;;22.76;54.98;95330.75;10442812;28;2186;-73
2023/07/29 16:05:14;;;;;;;;;;;;;;;22.75;54.88;95322.03;10447028;28;1972;-73
2023/07/29 16:10:14;;;;;;;;;;;;;;;22.75;55.18;95329.19;10449360;28;1511;-72
2023/07/29 16:15:14;;;;;;;;;;;;;;;22.76;55.53;95314.91;10453018;28;1810;-73
2023/07/29 16:20:15;;;;;;;;;;;;;;;22.75;55.39;95308.81;10468368;28;1590;-74
2023/07/29 16:25:15;;;;;;;;;;;;;;;22.75;55.30;95316.00;10491178;28;1980;-73
2023/07/29 16:30:15;;;;;;;;;;;;;;;22.75;55.58;95321.28;10461063;28;1458;-66
2023/07/29 16:35:16;;;;;;;;;;;;;;;22.76;55.81;95326.25;10465541;28;1579;-64
2023/07/29 16:40:16;;;;;;;;;;;;;;;22.76;55.86;95325.47;10460132;28;4450;-78
2023/07/29 16:45:16;;;;;;;;;;;;;;;22.76;55.45;95333.38;10462956;28;1914;-76
2023/07/29 16:50:16;;;;;;;;;;;;;;;22.76;55.53;95333.38;10456265;28;1516;-72
2023/07/29 16:55:17;;;;;;;;;;;;;;;22.76;55.52;95328.09;10452557;28;1488;-78
2023/07/29 17:00:17;;;;;;;;;;;;;;;22.77;55.73;95334.97;10465631;28;2301;-73
2023/07/29 17:05:17;;;;;;;;;;;;;;;22.77;55.53;95334.97;10450107;28;1906;-74
2023/07/29 17:10:18;;;;;;;;;;;;;;;22.76;55.44;95328.09;10462536;28;1502;-74
2023/07/29 17:15:18;;;;;;;;;;;;;;;22.75;55.67;95345.81;10458561;28;1530;-72
2023/07/29 17:20:19;;;;;;;;;;;;;;;22.77;55.61;95334.97;10460302;28;1300;-73
2023/07/29 17:25:20;;;;;;;;;;;;;;;22.77;55.68;95345.53;10462077;28;1483;-76
2023/07/29 17:30:21;;;;;;;;;;;;;;;22.78;55.75;95360.31;10458387;28;1490;-76
2023/07/29 17:35:21;;;;;;;;;;;;;;;22.79;55.93;95367.16;10457945;28;1498;-75
2023/07/29 17:40:21;;;;;;;;;;;;;;;22.78;55.75;95374.31;10453248;28;4445;-76
2023/07/29 17:45:22;;;;;;;;;;;;;;;22.80;56.02;95384.56;10462675;28;1563;-73
2023/07/29 17:50:22;;;;;;;;;;;;;;;22.81;56.13;95386.94;10464883;28;1595;-79
2023/07/29 17:55:23;;;;;;;;;;;;;;;22.81;56.00;95380.88;10465514;28;2264;-76
2023/07/29 18:00:23;;;;;;;;;;;;;;;22.80;55.92;95395.13;10458612;28;1964;-76
2023/07/29 18:05:23;;;;;;;;;;;;;;;22.79;55.79;95398.88;10469381;28;1451;-74
2023/07/29 18:10:25;;;;;;;;;;;;;;;22.80;55.81;95392.50;10453994;28;1464;-78
2023/07/29 18:15:25;;;;;;;;;;;;;;;22.80;55.62;95382.72;10466663;28;1427;-73
2023/07/29 18:20:25;;;;;;;;;;;;;;;22.82;55.71;95387.69;10453048;28;1914;-74
2023/07/29 18:25:26;;;;;;;;;;;;;;;22.83;55.81;95378.72;10461205;28;1471;-76
2023/07/29 18:30:26;;;;;;;;;;;;;;;22.82;55.86;95385.84;10462731;28;1455;-76
2023/07/29 18:35:26;;;;;;;;;;;;;;;22.82;56.06;95387.69;10456756;28;1660;-74
2023/07/29 18:40:27;;;;;;;;;;;;;;;22.81;55.77;95386.16;10458417;28;4521;-76
2023/07/29 18:45:29;;;;;;;;;;;;;;;22.81;55.77;95389.59;10475451;28;1518;-77
2023/07/29 18:50:29;;;;;;;;;;;;;;;22.80;55.51;95374.78;10447948;28;2374;-77
2023/07/29 18:55:29;;;;;;;;;;;;;;;22.81;55.72;95375.56;10443203;28;1898;-74
2023/07/29 19:00:31;;;;;;;;;;;;;;;22.81;55.81;95386.16;10437246;28;1906;-74
2023/07/29 19:05:31;;;;;;;;;;;;;;;22.80;55.66;95374.78;10444592;28;2089;-75
2023/07/29 19:10:32;;;;;;;;;;;;;;;22.80;55.59;95374.78;10445925;28;2101;-75
2023/07/29 19:15:32;;;;;;;;;;;;;;;22.80;55.71;95393.28;10438456;28;1908;-77
2023/07/29 19:20:32;;;;;;;;;;;;;;;22.80;55.78;95390.66;10456263;28;1898;-77
2023/07/29 19:25:33;;;;;;;;;;;;;;;22.81;55.65;95392.22;10450496;28;1969;-76
2023/07/29 19:30:33;;;;;;;;;;;;;;;22.79;55.81;95390.94;10443426;28;1859;-72
2023/07/29 19:35:33;;;;;;;;;;;;;;;22.80;55.50;95387.22;10441281;28;1940;-73
2023/07/29 19:40:36;;;;;;;;;;;;;;;22.80;55.70;95382.72;10475098;28;1926;-72
2023/07/29 19:45:36;;;;;;;;;;;;;;;22.81;55.61;95380.88;10435672;28;2318;-73
2023/07/29 19:50:37;;;;;;;;;;;;;;;22.83;55.71;95376.06;10444415;28;1862;-70
2023/07/29 19:55:37;;;;;;;;;;;;;;;22.84;55.66;95381.03;10472248;28;2321;-70
2023/07/29 20:00:37;;;;;;;;;;;;;;;22.84;55.78;95382.91;10443687;28;1902;-72
2023/07/29 20:05:39;;;;;;;;;;;;;;;22.83;54.49;95381.34;10440803;28;2136;-70
2023/07/29 20:10:39;;;;;;;;;;;;;;;22.77;54.41;95375.41;10439252;28;1951;-72
2023/07/29 20:15:39;;;;;;;;;;;;;;;22.70;54.48;95385.56;10445860;28;2056;-72
2023/07/29 20:20:40;;;;;;;;;;;;;;;22.57;54.38;95381.81;10457206;28;1902;-73
2023/07/29 20:25:40;;;;;;;;;;;;;;;22.43;54.62;95377.63;10447725;28;1957;-72
2023/07/29 20:30:40;;;;;;;;;;;;;;;22.30;54.84;95379.19;10449444;28;1888;-72
2023/07/29 20:35:41;;;;;;;;;;;;;;;22.23;55.31;95384.09;10440996;28;2134;-74
2023/07/29 20:40:47;;;;;;;;;;;;;;;22.21;55.09;95380.97;10439087;28;4983;-74
2023/07/29 20:45:48;;;;;;;;;;;;;;;22.11;55.67;95389.06;10466296;28;2029;-74
2023/07/29 20:50:49;;;;;;;;;;;;;;;22.09;55.38;95391.19;10448976;28;1887;-76
2023/07/29 20:55:49;;;;;;;;;;;;;;;22.13;55.36;95388.75;10465161;28;1859;-73
2023/07/29 21:00:53;;;;;;;;;;;;;;;22.04;55.64;95383.38;10470390;28;1973;-75
2023/07/29 21:05:53;;;;;;;;;;;;;;;21.98;55.65;95391.66;10452611;28;1826;-74
2023/07/29 21:10:54;;;;;;;;;;;;;;;21.95;55.27;95403.56;10444769;28;1921;-74
2023/07/29 21:15:54;;;;;;;;;;;;;;;21.99;55.53;95407.19;10437818;28;2168;-74
2023/07/29 21:20:54;;;;;;;;;;;;;;;22.02;55.30;95405.84;10448150;28;1998;-74
2023/07/29 21:25:54;;;;;;;;;;;;;;;22.05;55.34;95390.19;10448868;28;1846;-76
2023/07/29 21:30:55;;;;;;;;;;;;;;;22.07;55.34;95388.06;10443016;28;2144;-73
2023/07/29 21:35:55;;;;;;;;;;;;;;;22.10;55.03;95381.41;10441998;28;4494;-73
2023/07/29 21:40:55;;;;;;;;;;;;;;;22.10;55.01;95382.22;10444665;28;1898;-74
2023/07/29 21:45:56;;;;;;;;;;;;;;;22.12;54.87;95395.09;10440230;28;1960;-73
2023/07/29 21:50:56;;;;;;;;;;;;;;;22.13;54.78;95391.41;10448036;28;1968;-74
2023/07/29 21:55:56;;;;;;;;;;;;;;;22.13;55.04;95384.28;10476496;28;1953;-73
2023/07/29 22:00:56;;;;;;;;;;;;;;;22.12;54.65;95390.63;10440943;28;1971;-73
2023/07/29 22:06:03;;;;;;;;;;;;;;;22.12;54.73;95395.91;10438331;28;1896;-73
2023/07/29 22:11:04;;;;;;;;;;;;;;;22.12;54.66;95403.03;10454576;28;1958;-73
2023/07/29 22:16:04;;;;;;;;;;;;;;;22.10;54.65;95395.41;10440641;28;1962;-73
2023/07/29 22:21:04;;;;;;;;;;;;;;;22.11;54.55;95394.34;10444617;28;1957;-72
2023/07/29 22:26:05;;;;;;;;;;;;;;;22.12;54.58;95395.91;10442623;28;1857;-74
2023/07/29 22:31:06;;;;;;;;;;;;;;;22.13;54.27;95386.13;10441359;28;1898;-74
2023/07/29 22:36:06;;;;;;;;;;;;;;;22.11;54.10;95378.50;10433982;28;2350;-74
2023/07/29 22:41:06;;;;;;;;;;;;;;;22.12;54.07;95384.53;10461634;28;1918;-74
2023/07/29 22:46:06;;;;;;;;;;;;;;;22.11;54.08;95389.06;10446597;28;1889;-73
2023/07/29 22:51:07;;;;;;;;;;;;;;;22.11;54.09;95383.00;10440299;28;1978;-74
2023/07/29 22:56:07;;;;;;;;;;;;;;;22.11;54.07;95375.88;10449327;28;1907;-75
2023/07/29 23:01:07;;;;;;;;;;;;;;;22.10;54.08;95371.66;10440521;28;2098;-73
2023/07/29 23:06:07;;;;;;;;;;;;;;;22.10;54.08;95365.56;10440166;28;2190;-74
2023/07/29 23:11:08;;;;;;;;;;;;;;;22.09;53.75;95366.66;10443050;28;2190;-75
2023/07/29 23:16:08;;;;;;;;;;;;;;;22.08;53.73;95357.97;10436460;28;2085;-74
2023/07/29 23:21:09;;;;;;;;;;;;;;;22.07;53.78;95348.47;10441100;28;1971;-74
2023/07/29 23:26:09;;;;;;;;;;;;;;;22.08;53.86;95357.16;10442749;28;1920;-75
2023/07/29 23:31:09;;;;;;;;;;;;;;;22.08;53.60;95352.69;10447245;28;2443;-73
2023/07/29 23:36:09;;;;;;;;;;;;;;;22.09;53.66;95359.50;10444429;28;4540;-74
2023/07/29 23:41:10;;;;;;;;;;;;;;;22.08;53.76;95352.69;10470778;28;1933;-74
2023/07/29 23:46:10;;;;;;;;;;;;;;;22.10;53.83;95347.09;10448844;28;1949;-74
2023/07/29 23:51:10;;;;;;;;;;;;;;;22.09;53.78;95348.19;10459434;28;1877;-74
2023/07/29 23:56:11;;;;;;;;;;;;;;;22.07;53.76;95345.06;10447252;28;1926;-74
